Green Bay, WI

5:48 PM CDT en Octubre 25, 2014 (GMT -0500)
Nicolet Airfield | Change Station
CLOSE
Current Station
Estación meteorológica personal
Location: Green Bay, WI
Altura: 791 ft
Estaciones meteorológicas cercanas

Alt 791 ft 44.51 °N, 87.86 °W | Updated 25 seconds ago

Despejado
Despejado
60.7 ° F
Sensación térmica 60.7 ° F
N
18.0
Viento Variable Viento desde ONO
Gusts 21.0 mph

Hoy
Alta -- | Baja -- ° F
--% Posibilidad de precipitaciones
Ayer
Alta -- | Baja -- ° F
Precip. -- pul
7:19 AM 5:50 PM
Creciente, 4% visible
Presión 29.83 pul
Visibilidad 10.0 Millas
Nubes Despejado
Punto de rocío 30 ° F
Humedad 31%
Precipitaciones 0.00 pul
Espesor de la nieve No disponible.
UV 0 de una escala de 12
Polen 1.90 de una escala de 12
PM2.5 Buena
Flu Activity Sporadic
METAR KGRB 252153Z 29016G22KT 10SM CLR 17/M02 A2983 RMK AO2 PK WND 28027/2109 SLP102 T01721022

More Conditions Fewer Conditions

Presión 29.83 pul
Visibilidad 10.0 Millas
Nubes Despejado
Punto de rocío 30 ° F
Humedad 31%
Precipitaciones 0.00 pul
Espesor de la nieve No disponible.
UV 0 de una escala de 12
Polen 1.90 de una escala de 12
PM2.5 Buena
Flu Activity Sporadic
METAR KGRB 252153Z 29016G22KT 10SM CLR 17/M02 A2983 RMK AO2 PK WND 28027/2109 SLP102 T01721022

More Conditions Fewer Conditions

10-Day Weather Forecast

Almanac

Astronomía

Oct. 25, 2014 Salida Puesta
Hora real 7:19 AM CDT 5:50 PM CDT
Crepúsculo civil 6:49 AM CDT 6:20 PM CDT
Crepúsculo náutico 6:15 AM CDT 6:54 PM CDT
Crepúsculo astronómico 5:41 AM CDT 7:28 PM CDT
Luna 9:01 AM CDT 7:09 PM CDT
Horas de luz 11h 30m
Horas de luz
10h 31m
Tomorrow will be 2m 51s shorter.
Creciente, 4% of the Moon is Illuminated
Hoy
Creciente
Oct 30
Cuarto creciente
Nov 6
Luna llena
Nov 14
Cuarto menguante
Nov 22
Nueva

Extremos de hoy

Máximos del estado Bajos del estado

Community

WunderPhotos

Upload Photos

1,765,016 ¡fotos cargadas!

Nearby

Calidad del aire

  Calidad del aire Índice AQ Contaminante
Ayer Moderada
PM2.5
Real Buena
PM2.5
Sábado Buena
PM2.5
Domingo Buena
PM2.5
Lunes Moderada
PM2.5

Grosos de nieve

Estación Profundido Altura
No tenemos constancia de nieve nueva.

Actividad de terremotos

Ciudad Distance Mag. Tiempo y dato
No hay informes recientes de la actividad sísmica.
Magnitud mínima muestra es 2,5.

Temperaturas de aguas costeras

Lugar Temperatura
Menominee, MI 50.0 ° F

Estaciones meteorológicas cercanas